createdAt,value
2023-04-01T00:00:48.308Z,500.00
2023-04-01T00:01:48.322Z,500.00
2023-04-01T00:02:48.397Z,436.00
2023-04-01T00:03:48.494Z,405.00
2023-04-01T00:04:48.426Z,400.00
2023-04-01T00:05:48.414Z,400.00
2023-04-01T00:06:48.440Z,422.00
2023-04-01T00:07:48.463Z,443.00
2023-04-01T00:08:48.502Z,468.00
2023-04-01T00:09:48.528Z,499.00
2023-04-01T00:10:48.540Z,500.00
2023-04-01T00:11:48.580Z,500.00
2023-04-01T00:12:48.617Z,501.00
2023-04-01T00:13:48.626Z,504.00
2023-04-01T00:14:48.652Z,501.00
2023-04-01T00:15:48.698Z,500.00
2023-04-01T00:16:48.778Z,500.00
2023-04-01T00:17:48.836Z,500.00
2023-04-01T00:18:48.864Z,500.00
2023-04-01T00:19:48.802Z,502.00
2023-04-01T00:20:48.835Z,501.00
2023-04-01T00:21:48.867Z,501.00
2023-04-01T00:22:48.908Z,502.00
2023-04-01T00:23:48.931Z,500.00
2023-04-01T00:24:48.970Z,500.00
2023-04-01T00:25:49.363Z,500.00
2023-04-01T00:26:49.046Z,502.00
2023-04-01T00:27:49.076Z,501.00
2023-04-01T00:28:49.163Z,502.00
2023-04-01T00:29:49.146Z,500.00
2023-04-01T00:30:49.245Z,502.00
2023-04-01T00:31:49.265Z,502.00
2023-04-01T00:32:49.320Z,504.00
2023-04-01T00:33:49.307Z,501.00
2023-04-01T00:34:49.344Z,501.00
2023-04-01T00:35:49.394Z,502.00
2023-04-01T00:36:49.424Z,502.00
2023-04-01T00:37:49.474Z,502.00
2023-04-01T00:38:49.509Z,503.00
2023-04-01T00:39:49.539Z,501.00
2023-04-01T00:40:49.606Z,501.00
2023-04-01T00:41:49.629Z,502.00
2023-04-01T00:42:49.667Z,501.00
2023-04-01T00:43:49.712Z,501.00
2023-04-01T00:44:49.775Z,502.00
2023-04-01T00:45:50.455Z,503.00
2023-04-01T00:46:49.892Z,501.00
2023-04-01T00:47:49.908Z,504.00
2023-04-01T00:48:49.928Z,500.00
2023-04-01T00:49:49.954Z,502.00
2023-04-01T00:50:49.990Z,502.00
2023-04-01T00:51:50.041Z,500.00
2023-04-01T00:52:50.073Z,500.00
2023-04-01T00:53:50.125Z,501.00
2023-04-01T00:54:50.167Z,501.00
2023-04-01T00:55:50.203Z,501.00
2023-04-01T00:56:50.283Z,501.00
2023-04-01T00:57:50.284Z,502.00
2023-04-01T00:58:50.351Z,502.00
2023-04-01T00:59:50.358Z,504.00
2023-04-01T01:00:50.482Z,504.00
2023-04-01T01:01:50.491Z,503.00
2023-04-01T01:02:50.563Z,501.00
2023-04-01T01:03:50.541Z,501.00
2023-04-01T01:04:50.585Z,504.00
2023-04-01T01:05:50.775Z,501.00
2023-04-01T01:06:50.672Z,501.00
2023-04-01T01:07:50.715Z,501.00
2023-04-01T01:08:50.757Z,500.00
2023-04-01T01:09:50.798Z,502.00
2023-04-01T01:10:50.853Z,504.00
2023-04-01T01:11:50.890Z,501.00
2023-04-01T01:12:50.926Z,500.00
2023-04-01T01:13:50.976Z,500.00
2023-04-01T01:14:51.039Z,506.00
2023-04-01T01:15:51.090Z,504.00
2023-04-01T01:16:51.178Z,501.00
2023-04-01T01:17:51.231Z,501.00
2023-04-01T01:18:51.217Z,503.00
2023-04-01T01:19:51.274Z,501.00
2023-04-01T01:20:51.323Z,501.00
2023-04-01T01:21:51.360Z,500.00
2023-04-01T01:22:51.409Z,503.00
2023-04-01T01:23:51.456Z,503.00
2023-04-01T01:24:51.514Z,505.00
2023-04-01T01:25:51.559Z,504.00
2023-04-01T01:26:51.602Z,502.00
2023-04-01T01:27:51.644Z,503.00
2023-04-01T01:28:51.698Z,501.00
2023-04-01T01:29:51.746Z,501.00
2023-04-01T01:30:51.799Z,502.00
2023-04-01T01:31:51.839Z,503.00
2023-04-01T01:32:51.955Z,500.00
2023-04-01T01:33:51.937Z,501.00
2023-04-01T01:34:51.980Z,502.00
2023-04-01T01:35:52.109Z,500.00
2023-04-01T01:36:52.075Z,501.00
2023-04-01T01:37:52.123Z,501.00
2023-04-01T01:38:52.194Z,502.00
2023-04-01T01:39:52.221Z,503.00
2023-04-01T01:40:52.271Z,502.00
2023-04-01T01:41:52.322Z,502.00
2023-04-01T01:42:52.372Z,503.00
2023-04-01T01:43:52.426Z,502.00
2023-04-01T01:44:52.461Z,502.00
2023-04-01T01:45:52.528Z,502.00
2023-04-01T01:46:52.962Z,502.00
2023-04-01T01:47:52.653Z,501.00
2023-04-01T01:48:52.673Z,501.00
2023-04-01T01:49:52.687Z,501.00
2023-04-01T01:50:52.736Z,502.00
2023-04-01T01:51:52.784Z,500.00
2023-04-01T01:52:52.833Z,505.00
2023-04-01T01:53:52.877Z,504.00
2023-04-01T01:54:52.929Z,500.00
2023-04-01T01:55:52.989Z,504.00
2023-04-01T01:56:53.051Z,503.00
2023-04-01T01:57:53.061Z,503.00
2023-04-01T01:58:53.098Z,503.00
2023-04-01T01:59:53.148Z,504.00
2023-04-01T02:00:53.200Z,500.00
2023-04-01T02:01:53.247Z,502.00
2023-04-01T02:02:53.362Z,501.00
2023-04-01T02:03:53.339Z,502.00
2023-04-01T02:04:53.438Z,501.00
2023-04-01T02:05:53.434Z,500.00
2023-04-01T02:06:53.513Z,500.00
2023-04-01T02:07:53.536Z,503.00
2023-04-01T02:08:53.591Z,503.00
2023-04-01T02:09:53.641Z,502.00
2023-04-01T02:10:53.690Z,502.00
2023-04-01T02:11:53.763Z,502.00
2023-04-01T02:12:53.799Z,505.00
2023-04-01T02:13:53.864Z,503.00
2023-04-01T02:14:53.924Z,502.00
2023-04-01T02:15:53.970Z,501.00
2023-04-01T02:16:53.997Z,501.00
2023-04-01T02:17:55.014Z,502.00
2023-04-01T02:18:54.110Z,502.00
2023-04-01T02:19:54.142Z,502.00
2023-04-01T02:20:54.206Z,502.00
2023-04-01T02:21:54.239Z,503.00
2023-04-01T02:22:54.271Z,502.00
2023-04-01T02:23:54.304Z,500.00
2023-04-01T02:24:54.360Z,503.00
2023-04-01T02:25:54.407Z,501.00
2023-04-01T02:26:54.450Z,501.00
2023-04-01T02:27:54.492Z,502.00
2023-04-01T02:28:54.520Z,500.00
2023-04-01T02:29:54.575Z,503.00
2023-04-01T02:30:54.628Z,501.00
2023-04-01T02:31:54.702Z,502.00
2023-04-01T02:32:54.770Z,502.00
2023-04-01T02:33:54.814Z,503.00
2023-04-01T02:34:54.861Z,502.00
2023-04-01T02:35:54.930Z,502.00
2023-04-01T02:36:55.004Z,501.00
2023-04-01T02:37:55.023Z,503.00
2023-04-01T02:38:55.075Z,502.00
2023-04-01T02:39:55.141Z,502.00
2023-04-01T02:40:55.195Z,501.00
2023-04-01T02:41:55.245Z,503.00
2023-04-01T02:42:55.297Z,503.00
2023-04-01T02:43:55.353Z,503.00
2023-04-01T02:44:55.407Z,500.00
2023-04-01T02:45:55.456Z,501.00
2023-04-01T02:46:55.568Z,503.00
2023-04-01T02:47:55.596Z,502.00
2023-04-01T02:48:55.637Z,503.00
2023-04-01T02:49:55.986Z,503.00
2023-04-01T02:50:55.758Z,503.00
2023-04-01T02:51:55.796Z,503.00
2023-04-01T02:52:55.870Z,501.00
2023-04-01T02:53:55.897Z,503.00
2023-04-01T02:54:55.958Z,501.00
2023-04-01T02:55:56.005Z,502.00
2023-04-01T02:56:56.068Z,505.00
2023-04-01T02:57:56.126Z,504.00
2023-04-01T02:58:56.191Z,500.00
2023-04-01T02:59:56.220Z,503.00
2023-04-01T03:00:56.296Z,504.00
2023-04-01T03:01:56.338Z,502.00
2023-04-01T03:02:56.549Z,503.00
2023-04-01T03:03:56.436Z,504.00
2023-04-01T03:04:56.496Z,501.00
2023-04-01T03:05:56.552Z,502.00
2023-04-01T03:06:56.582Z,503.00
2023-04-01T03:07:56.639Z,501.00
2023-04-01T03:08:56.749Z,502.00
2023-04-01T03:09:56.738Z,501.00
2023-04-01T03:10:57.948Z,502.00
2023-04-01T03:11:56.793Z,508.00
2023-04-01T03:12:56.785Z,507.00
2023-04-01T03:13:56.779Z,503.00
2023-04-01T03:14:56.753Z,503.00
2023-04-01T03:15:56.746Z,503.00
2023-04-01T03:16:56.768Z,505.00
2023-04-01T03:17:56.754Z,504.00
2023-04-01T03:18:56.725Z,504.00
2023-04-01T03:19:56.709Z,501.00
2023-04-01T03:20:56.698Z,504.00
2023-04-01T03:21:56.693Z,500.00
2023-04-01T03:22:56.670Z,503.00
2023-04-01T03:23:56.660Z,502.00
2023-04-01T03:24:56.670Z,504.00
2023-04-01T03:25:56.642Z,500.00
2023-04-01T03:26:56.626Z,502.00
2023-04-01T03:27:56.618Z,500.00
2023-04-01T03:28:56.605Z,501.00
2023-04-01T03:29:56.693Z,503.00
2023-04-01T03:30:56.644Z,502.00
2023-04-01T03:31:56.560Z,502.00
2023-04-01T03:32:56.584Z,503.00
2023-04-01T03:33:56.521Z,501.00
2023-04-01T03:34:56.509Z,502.00
2023-04-01T03:35:56.542Z,501.00
2023-04-01T03:36:56.488Z,502.00
2023-04-01T03:37:56.471Z,500.00
2023-04-01T03:38:56.460Z,500.00
2023-04-01T03:39:56.468Z,502.00
2023-04-01T03:40:56.506Z,502.00
2023-04-01T03:41:56.593Z,502.00
2023-04-01T03:42:56.621Z,500.00
2023-04-01T03:43:56.635Z,503.00
2023-04-01T03:44:56.697Z,501.00
2023-04-01T03:45:56.788Z,502.00
2023-04-01T03:46:56.809Z,500.00
2023-04-01T03:47:56.883Z,502.00
2023-04-01T03:48:56.937Z,501.00
2023-04-01T03:49:56.966Z,501.00
2023-04-01T03:50:57.092Z,502.00
2023-04-01T03:51:57.076Z,505.00
2023-04-01T03:52:57.125Z,503.00
2023-04-01T03:53:57.184Z,501.00
2023-04-01T03:54:57.240Z,501.00
2023-04-01T03:55:57.290Z,501.00
2023-04-01T03:56:57.404Z,500.00
2023-04-01T03:57:57.400Z,501.00
2023-04-01T03:58:57.434Z,502.00
2023-04-01T03:59:57.495Z,502.00
2023-04-01T04:00:57.558Z,501.00
2023-04-01T04:01:57.620Z,500.00
2023-04-01T04:02:57.747Z,502.00
2023-04-01T04:03:57.727Z,504.00
2023-04-01T04:04:57.771Z,503.00
2023-04-01T04:05:57.820Z,501.00
2023-04-01T04:06:57.872Z,500.00
2023-04-01T04:07:57.933Z,503.00
2023-04-01T04:08:57.968Z,503.00
2023-04-01T04:09:58.031Z,501.00
2023-04-01T04:10:58.075Z,503.00
2023-04-01T04:11:58.133Z,501.00
2023-04-01T04:12:58.241Z,501.00
2023-04-01T04:13:58.391Z,500.00
2023-04-01T04:14:58.259Z,503.00
2023-04-01T04:15:58.354Z,505.00
2023-04-01T04:16:58.356Z,503.00
2023-04-01T04:17:58.457Z,501.00
2023-04-01T04:18:58.488Z,503.00
2023-04-01T04:19:58.529Z,503.00
2023-04-01T04:20:58.571Z,502.00
2023-04-01T04:21:58.639Z,502.00
2023-04-01T04:22:58.711Z,502.00
2023-04-01T04:23:58.737Z,504.00
2023-04-01T04:24:58.797Z,503.00
2023-04-01T04:25:58.847Z,503.00
2023-04-01T04:26:58.900Z,502.00
2023-04-01T04:27:58.993Z,501.00
2023-04-01T04:28:59.055Z,500.00
2023-04-01T04:29:59.081Z,502.00
2023-04-01T04:30:59.133Z,500.00
2023-04-01T04:31:59.285Z,500.00
2023-04-01T04:32:59.276Z,503.00
2023-04-01T04:33:59.279Z,503.00
2023-04-01T04:34:59.324Z,505.00
2023-04-01T04:35:59.397Z,504.00
2023-04-01T04:36:59.424Z,504.00
2023-04-01T04:37:59.478Z,501.00
2023-04-01T04:38:59.526Z,503.00
2023-04-01T04:39:59.577Z,502.00
2023-04-01T04:40:59.636Z,506.00
2023-04-01T04:41:59.691Z,506.00
2023-04-01T04:42:59.754Z,503.00
2023-04-01T04:43:59.812Z,502.00
2023-04-01T04:44:59.884Z,504.00
2023-04-01T04:45:59.908Z,504.00
2023-04-01T04:47:00.015Z,504.00
2023-04-01T04:48:00.068Z,501.00
2023-04-01T04:49:00.107Z,503.00
2023-04-01T04:50:00.164Z,502.00
2023-04-01T04:51:00.172Z,503.00
2023-04-01T04:52:00.234Z,500.00
2023-04-01T04:53:00.291Z,502.00
2023-04-01T04:54:00.343Z,502.00
2023-04-01T04:55:00.389Z,502.00
2023-04-01T04:56:00.443Z,503.00
2023-04-01T04:57:00.499Z,502.00
2023-04-01T04:58:00.548Z,503.00
2023-04-01T04:59:00.619Z,504.00
2023-04-01T05:00:00.647Z,502.00
2023-04-01T05:01:00.756Z,501.00
2023-04-01T05:02:00.757Z,501.00
2023-04-01T05:03:00.947Z,501.00
2023-04-01T05:04:00.860Z,503.00
2023-04-01T05:05:00.914Z,504.00
2023-04-01T05:06:00.965Z,503.00
2023-04-01T05:07:01.043Z,502.00
2023-04-01T05:08:01.090Z,504.00
2023-04-01T05:09:01.150Z,501.00
2023-04-01T05:10:01.209Z,503.00
2023-04-01T05:11:01.270Z,501.00
2023-04-01T05:12:01.326Z,501.00
2023-04-01T05:13:01.376Z,502.00
2023-04-01T05:14:01.430Z,501.00
2023-04-01T05:15:01.528Z,501.00
2023-04-01T05:16:01.543Z,502.00
2023-04-01T05:17:01.868Z,502.00
2023-04-01T05:18:01.687Z,503.00
2023-04-01T05:19:01.706Z,502.00
2023-04-01T05:20:01.774Z,502.00
2023-04-01T05:21:01.834Z,502.00
2023-04-01T05:22:02.204Z,502.00
2023-04-01T05:23:01.955Z,502.00
2023-04-01T05:24:01.990Z,501.00
2023-04-01T05:25:02.048Z,501.00
2023-04-01T05:26:02.098Z,501.00
2023-04-01T05:27:02.306Z,502.00
2023-04-01T05:28:02.210Z,503.00
2023-04-01T05:29:02.272Z,501.00
2023-04-01T05:30:02.325Z,501.00
2023-04-01T05:31:02.395Z,504.00
2023-04-01T05:32:02.443Z,503.00
2023-04-01T05:33:02.564Z,505.00
2023-04-01T05:34:02.563Z,504.00
2023-04-01T05:35:02.686Z,501.00
2023-04-01T05:36:02.687Z,505.00
2023-04-01T05:37:02.758Z,505.00
2023-04-01T05:38:02.816Z,504.00
2023-04-01T05:39:02.835Z,502.00
2023-04-01T05:40:02.905Z,502.00
2023-04-01T05:41:02.954Z,503.00
2023-04-01T05:42:03.077Z,500.00
2023-04-01T05:43:03.043Z,503.00
2023-04-01T05:44:03.108Z,501.00
2023-04-01T05:45:03.162Z,502.00
2023-04-01T05:46:03.262Z,502.00
2023-04-01T05:47:03.274Z,501.00
2023-04-01T05:48:03.389Z,501.00
2023-04-01T05:49:03.418Z,500.00
2023-04-01T05:50:03.446Z,501.00
2023-04-01T05:51:03.509Z,505.00
2023-04-01T05:52:03.572Z,502.00
2023-04-01T05:53:03.637Z,501.00
2023-04-01T05:54:03.686Z,502.00
2023-04-01T05:55:03.747Z,503.00
2023-04-01T05:56:03.829Z,504.00
2023-04-01T05:57:03.879Z,503.00
2023-04-01T05:58:03.927Z,502.00
2023-04-01T05:59:03.973Z,501.00
2023-04-01T06:00:04.043Z,503.00
2023-04-01T06:01:10.284Z,504.00
2023-04-01T06:02:04.097Z,505.00
2023-04-01T06:03:04.186Z,506.00
2023-04-01T06:04:04.207Z,505.00
2023-04-01T06:05:04.117Z,506.00
2023-04-01T06:06:04.070Z,506.00
2023-04-01T06:07:04.061Z,505.00
2023-04-01T06:08:04.072Z,504.00
2023-04-01T06:09:04.057Z,503.00
2023-04-01T06:10:04.043Z,501.00
2023-04-01T06:11:04.039Z,503.00
2023-04-01T06:12:04.036Z,502.00
2023-04-01T06:13:04.036Z,502.00
2023-04-01T06:14:04.037Z,500.00
2023-04-01T06:15:04.047Z,501.00
2023-04-01T06:16:04.095Z,505.00
2023-04-01T06:17:04.002Z,504.00
2023-04-01T06:18:04.100Z,505.00
2023-04-01T06:19:03.989Z,504.00
2023-04-01T06:20:03.976Z,503.00
2023-04-01T06:21:04.010Z,504.00
2023-04-01T06:22:03.964Z,503.00
2023-04-01T06:23:03.966Z,505.00
2023-04-01T06:24:03.961Z,505.00
2023-04-01T06:25:04.025Z,504.00
2023-04-01T06:26:04.096Z,503.00
2023-04-01T06:27:04.138Z,504.00
2023-04-01T06:28:04.252Z,503.00
2023-04-01T06:29:04.246Z,503.00
2023-04-01T06:30:04.300Z,503.00
2023-04-01T06:31:04.374Z,500.00
2023-04-01T06:32:04.454Z,501.00
2023-04-01T06:33:04.626Z,502.00
2023-04-01T06:34:04.551Z,501.00
2023-04-01T06:35:04.604Z,504.00
2023-04-01T06:36:04.743Z,504.00
2023-04-01T06:37:04.808Z,504.00
2023-04-01T06:38:04.800Z,504.00
2023-04-01T06:39:04.842Z,501.00
2023-04-01T06:40:04.890Z,502.00
2023-04-01T06:41:04.954Z,503.00
2023-04-01T06:42:04.999Z,503.00
2023-04-01T06:43:05.071Z,503.00
2023-04-01T06:44:05.123Z,503.00
2023-04-01T06:45:05.187Z,500.00
2023-04-01T06:46:05.360Z,503.00
2023-04-01T06:47:05.307Z,501.00
2023-04-01T06:48:05.395Z,502.00
2023-04-01T06:49:05.408Z,501.00
2023-04-01T06:50:05.462Z,502.00
2023-04-01T06:51:05.512Z,502.00
2023-04-01T06:52:05.573Z,502.00
2023-04-01T06:53:05.645Z,500.00
2023-04-01T06:54:05.672Z,500.00
2023-04-01T06:55:05.740Z,501.00
2023-04-01T06:56:05.791Z,503.00
2023-04-01T06:57:05.858Z,503.00
2023-04-01T06:58:05.894Z,501.00
2023-04-01T06:59:05.945Z,504.00
2023-04-01T07:00:06.010Z,500.00
2023-04-01T07:01:06.140Z,502.00
2023-04-01T07:02:06.129Z,504.00
2023-04-01T07:03:06.953Z,503.00
2023-04-01T07:04:06.248Z,502.00
2023-04-01T07:05:06.265Z,504.00
2023-04-01T07:06:06.301Z,500.00
2023-04-01T07:07:06.356Z,501.00
2023-04-01T07:08:06.410Z,503.00
2023-04-01T07:09:06.467Z,503.00
2023-04-01T07:10:06.489Z,501.00
2023-04-01T07:11:06.546Z,503.00
2023-04-01T07:12:06.586Z,505.00
2023-04-01T07:13:06.649Z,504.00
2023-04-01T07:14:06.676Z,503.00
2023-04-01T07:15:06.721Z,500.00
2023-04-01T07:16:06.767Z,501.00
2023-04-01T07:17:06.915Z,503.00
2023-04-01T07:18:06.926Z,502.00
2023-04-01T07:19:06.904Z,505.00
2023-04-01T07:20:06.964Z,505.00
2023-04-01T07:21:06.996Z,504.00
2023-04-01T07:22:07.052Z,505.00
2023-04-01T07:23:07.102Z,503.00
2023-04-01T07:24:07.132Z,506.00
2023-04-01T07:25:07.193Z,505.00
2023-04-01T07:26:07.209Z,505.00
2023-04-01T07:27:07.247Z,502.00
2023-04-01T07:28:07.448Z,504.00
2023-04-01T07:29:07.328Z,502.00
2023-04-01T07:30:07.373Z,502.00
2023-04-01T07:31:07.467Z,504.00
2023-04-01T07:32:07.435Z,504.00
2023-04-01T07:33:07.516Z,504.00
2023-04-01T07:34:07.526Z,502.00
2023-04-01T07:35:07.562Z,504.00
2023-04-01T07:36:07.643Z,505.00
2023-04-01T07:37:07.667Z,505.00
2023-04-01T07:38:07.695Z,509.00
2023-04-01T07:39:07.735Z,505.00
2023-04-01T07:40:07.776Z,506.00
2023-04-01T07:41:07.856Z,504.00
2023-04-01T07:42:07.864Z,503.00
2023-04-01T07:43:07.900Z,507.00
2023-04-01T07:44:07.947Z,505.00
2023-04-01T07:45:07.988Z,506.00
2023-04-01T07:46:08.086Z,506.00
2023-04-01T07:47:08.074Z,503.00
2023-04-01T07:48:08.154Z,504.00
2023-04-01T07:49:08.168Z,506.00
2023-04-01T07:50:08.215Z,506.00
2023-04-01T07:51:08.336Z,504.00
2023-04-01T07:52:08.311Z,507.00
2023-04-01T07:53:08.348Z,506.00
2023-04-01T07:54:08.392Z,504.00
2023-04-01T07:55:08.449Z,510.00
2023-04-01T07:56:09.026Z,507.00
2023-04-01T07:57:08.781Z,509.00
2023-04-01T07:58:08.778Z,509.00
2023-04-01T07:59:08.826Z,505.00
2023-04-01T08:00:08.888Z,508.00
2023-04-01T08:01:08.918Z,507.00
2023-04-01T08:02:08.965Z,505.00
2023-04-01T08:03:09.086Z,506.00
2023-04-01T08:04:09.164Z,508.00
2023-04-01T08:05:09.114Z,507.00
2023-04-01T08:06:09.158Z,507.00
2023-04-01T08:07:09.211Z,506.00
2023-04-01T08:08:09.261Z,507.00
2023-04-01T08:09:09.303Z,509.00
2023-04-01T08:10:09.346Z,504.00
2023-04-01T08:11:09.398Z,509.00
2023-04-01T08:12:09.420Z,507.00
2023-04-01T08:13:09.502Z,506.00
2023-04-01T08:14:09.518Z,509.00
2023-04-01T08:15:09.553Z,505.00
2023-04-01T08:16:09.665Z,501.00
2023-04-01T08:17:09.637Z,505.00
2023-04-01T08:18:09.690Z,503.00
2023-04-01T08:19:09.732Z,506.00
2023-04-01T08:20:09.778Z,507.00
2023-04-01T08:21:09.807Z,508.00
2023-04-01T08:22:09.850Z,507.00
2023-04-01T08:23:09.887Z,506.00
2023-04-01T08:24:09.936Z,505.00
2023-04-01T08:25:09.971Z,502.00
2023-04-01T08:26:10.010Z,507.00
2023-04-01T08:27:10.052Z,506.00
2023-04-01T08:28:10.094Z,505.00
2023-04-01T08:29:10.168Z,506.00
2023-04-01T08:30:10.487Z,510.00
2023-04-01T08:31:10.243Z,508.00
2023-04-01T08:32:10.342Z,508.00
2023-04-01T08:33:10.342Z,508.00
2023-04-01T08:34:10.329Z,509.00
2023-04-01T08:35:10.370Z,506.00
2023-04-01T08:36:10.467Z,510.00
2023-04-01T08:37:10.438Z,504.00
2023-04-01T08:38:10.484Z,509.00
2023-04-01T08:39:10.524Z,507.00
2023-04-01T08:40:10.564Z,506.00
2023-04-01T08:41:10.584Z,506.00
2023-04-01T08:42:10.623Z,504.00
2023-04-01T08:43:10.656Z,502.00
2023-04-01T08:44:10.703Z,500.00
2023-04-01T08:45:12.541Z,502.00
2023-04-01T08:46:10.780Z,502.00
2023-04-01T08:47:10.724Z,502.00
2023-04-01T08:48:10.773Z,501.00
2023-04-01T08:49:10.723Z,499.00
2023-04-01T08:50:10.731Z,498.00
2023-04-01T08:51:10.718Z,502.00
2023-04-01T08:52:10.712Z,506.00
2023-04-01T08:53:10.701Z,504.00
2023-04-01T08:54:10.702Z,500.00
2023-04-01T08:55:10.711Z,501.00
2023-04-01T08:56:10.703Z,503.00
2023-04-01T08:57:10.705Z,505.00
2023-04-01T08:58:10.746Z,505.00
2023-04-01T08:59:10.679Z,500.00
2023-04-01T09:00:10.666Z,500.00
2023-04-01T09:01:10.684Z,508.00
2023-04-01T09:02:10.699Z,506.00
2023-04-01T09:03:10.969Z,505.00
2023-04-01T09:04:10.685Z,507.00
2023-04-01T09:05:10.657Z,506.00
2023-04-01T09:06:10.647Z,507.00
2023-04-01T09:07:12.629Z,507.00
2023-04-01T09:08:10.637Z,514.00
2023-04-01T09:09:10.625Z,512.00
2023-04-01T09:10:10.626Z,514.00
2023-04-01T09:11:10.622Z,506.00
2023-04-01T09:12:10.698Z,505.00
2023-04-01T09:13:10.639Z,506.00
2023-04-01T09:14:10.635Z,507.00
2023-04-01T09:15:10.635Z,502.00
2023-04-01T09:16:10.734Z,505.00
2023-04-01T09:17:10.674Z,509.00
2023-04-01T09:18:10.686Z,508.00
2023-04-01T09:19:11.119Z,507.00
2023-04-01T09:20:10.659Z,509.00
2023-04-01T09:21:10.652Z,507.00
2023-04-01T09:22:10.652Z,508.00
2023-04-01T09:23:10.649Z,508.00
2023-04-01T09:24:10.651Z,511.00
2023-04-01T09:25:10.644Z,512.00
2023-04-01T09:26:10.651Z,504.00
2023-04-01T09:27:10.652Z,506.00
2023-04-01T09:28:10.666Z,508.00
2023-04-01T09:29:10.675Z,508.00
2023-04-01T09:30:10.681Z,512.00
2023-04-01T09:31:10.694Z,508.00
2023-04-01T09:32:10.675Z,511.00
2023-04-01T09:33:10.685Z,504.00
2023-04-01T09:34:10.657Z,505.00
2023-04-01T09:35:10.645Z,505.00
2023-04-01T09:36:10.696Z,509.00
2023-04-01T09:37:10.651Z,506.00
2023-04-01T09:38:10.641Z,500.00
2023-04-01T09:39:10.630Z,506.00
2023-04-01T09:40:10.621Z,503.00
2023-04-01T09:41:10.623Z,508.00
2023-04-01T09:42:10.626Z,507.00
2023-04-01T09:43:10.635Z,507.00
2023-04-01T09:44:10.646Z,509.00
2023-04-01T09:45:10.644Z,508.00
2023-04-01T09:46:10.694Z,509.00
2023-04-01T09:47:10.653Z,504.00
2023-04-01T09:48:10.686Z,500.00
2023-04-01T09:49:10.644Z,501.00
2023-04-01T09:50:10.603Z,506.00
2023-04-01T09:51:10.629Z,502.00
2023-04-01T09:52:10.645Z,505.00
2023-04-01T09:53:10.665Z,500.00
2023-04-01T09:54:10.747Z,502.00
2023-04-01T09:55:10.717Z,501.00
2023-04-01T09:56:10.734Z,501.00
2023-04-01T09:57:10.780Z,502.00
2023-04-01T09:58:10.781Z,505.00
2023-04-01T09:59:10.800Z,502.00
2023-04-01T10:00:10.822Z,506.00
2023-04-01T10:01:10.849Z,500.00
2023-04-01T10:02:10.907Z,510.00
2023-04-01T10:03:10.985Z,506.00
2023-04-01T10:04:10.903Z,514.00
2023-04-01T10:05:11.052Z,514.00
2023-04-01T10:06:10.966Z,518.00
2023-04-01T10:07:10.964Z,516.00
2023-04-01T10:08:10.990Z,518.00
2023-04-01T10:09:11.007Z,525.00
2023-04-01T10:10:11.049Z,525.00
2023-04-01T10:11:11.042Z,519.00
2023-04-01T10:12:11.064Z,522.00
2023-04-01T10:13:11.090Z,527.00
2023-04-01T10:14:11.113Z,523.00
2023-04-01T10:15:11.129Z,523.00
2023-04-01T10:16:11.193Z,526.00
2023-04-01T10:17:11.178Z,526.00
2023-04-01T10:18:11.208Z,525.00
2023-04-01T10:19:11.222Z,525.00
2023-04-01T10:20:11.280Z,519.00
2023-04-01T10:21:11.282Z,525.00
2023-04-01T10:22:11.318Z,526.00
2023-04-01T10:23:11.306Z,520.00
2023-04-01T10:24:11.318Z,524.00
2023-04-01T10:25:11.336Z,528.00
2023-04-01T10:26:11.350Z,527.00
2023-04-01T10:27:11.376Z,521.00
2023-04-01T10:28:11.392Z,515.00
2023-04-01T10:29:11.412Z,523.00
2023-04-01T10:30:11.434Z,523.00
2023-04-01T10:31:11.447Z,520.00
2023-04-01T10:32:11.564Z,525.00
2023-04-01T10:33:11.501Z,520.00
2023-04-01T10:34:11.509Z,514.00
2023-04-01T10:35:11.544Z,515.00
2023-04-01T10:36:11.590Z,516.00
2023-04-01T10:37:11.562Z,513.00
2023-04-01T10:38:11.558Z,518.00
2023-04-01T10:39:11.582Z,518.00
2023-04-01T10:40:11.581Z,517.00
2023-04-01T10:41:11.584Z,520.00
2023-04-01T10:42:11.608Z,513.00
2023-04-01T10:43:11.625Z,514.00
2023-04-01T10:44:11.656Z,510.00
2023-04-01T10:45:11.665Z,506.00
2023-04-01T10:46:11.733Z,504.00
2023-04-01T10:47:11.659Z,504.00
2023-04-01T10:48:11.671Z,514.00
2023-04-01T10:49:11.687Z,515.00
2023-04-01T10:50:11.693Z,511.00
2023-04-01T10:51:11.702Z,501.00
2023-04-01T10:52:11.721Z,508.00
2023-04-01T10:53:11.762Z,504.00
2023-04-01T10:54:11.727Z,508.00
2023-04-01T10:55:11.754Z,507.00
2023-04-01T10:56:11.758Z,504.00
2023-04-01T10:57:11.784Z,511.00
2023-04-01T10:58:11.772Z,512.00
2023-04-01T10:59:11.780Z,515.00
2023-04-01T11:00:11.782Z,509.00
2023-04-01T11:01:11.850Z,504.00
2023-04-01T11:02:12.441Z,506.00
2023-04-01T11:03:11.884Z,511.00
2023-04-01T11:04:11.841Z,512.00
2023-04-01T11:05:11.850Z,511.00
2023-04-01T11:06:11.859Z,509.00
2023-04-01T11:07:11.875Z,509.00
2023-04-01T11:08:11.877Z,511.00
2023-04-01T11:09:11.917Z,513.00
2023-04-01T11:10:11.940Z,510.00
2023-04-01T11:11:11.923Z,510.00
2023-04-01T11:12:11.936Z,509.00
2023-04-01T11:13:11.953Z,506.00
2023-04-01T11:14:11.959Z,505.00
2023-04-01T11:15:12.008Z,503.00
2023-04-01T11:16:12.038Z,500.00
2023-04-01T11:17:12.031Z,501.00
2023-04-01T11:18:12.091Z,501.00
2023-04-01T11:19:12.006Z,505.00
2023-04-01T11:20:12.029Z,508.00
2023-04-01T11:21:12.038Z,504.00
2023-04-01T11:22:12.055Z,508.00
2023-04-01T11:23:12.055Z,507.00
2023-04-01T11:24:12.083Z,503.00
2023-04-01T11:25:12.107Z,505.00
2023-04-01T11:26:12.097Z,503.00
2023-04-01T11:27:12.145Z,504.00
2023-04-01T11:28:12.129Z,519.00
2023-04-01T11:29:12.154Z,511.00
2023-04-01T11:30:12.172Z,510.00
2023-04-01T11:31:12.211Z,511.00
2023-04-01T11:32:12.181Z,516.00
2023-04-01T11:33:12.235Z,517.00
2023-04-01T11:34:12.213Z,519.00
2023-04-01T11:35:12.228Z,508.00
2023-04-01T11:36:12.276Z,504.00
2023-04-01T11:37:12.267Z,505.00
2023-04-01T11:38:12.265Z,509.00
2023-04-01T11:39:12.286Z,513.00
2023-04-01T11:40:12.300Z,507.00
2023-04-01T11:41:12.343Z,514.00
2023-04-01T11:42:12.348Z,511.00
2023-04-01T11:43:19.964Z,503.00
2023-04-01T11:44:12.352Z,503.00
2023-04-01T11:45:12.338Z,503.00
2023-04-01T11:46:12.375Z,490.00
2023-04-01T11:47:12.314Z,489.00
2023-04-01T11:48:12.316Z,500.00
2023-04-01T11:49:12.324Z,505.00
2023-04-01T11:50:12.333Z,505.00
2023-04-01T11:51:12.322Z,500.00
2023-04-01T11:52:12.324Z,502.00
2023-04-01T11:53:12.296Z,503.00
2023-04-01T11:54:12.329Z,508.00
2023-04-01T11:55:12.268Z,513.00
2023-04-01T11:56:12.256Z,505.00
2023-04-01T11:57:12.331Z,508.00
2023-04-01T11:58:12.237Z,505.00
2023-04-01T11:59:12.240Z,510.00
2023-04-01T12:00:12.296Z,510.00
2023-04-01T12:01:12.225Z,503.00
2023-04-01T12:02:12.252Z,507.00
2023-04-01T12:03:12.266Z,500.00
2023-04-01T12:04:12.314Z,512.00
2023-04-01T12:05:12.181Z,506.00
2023-04-01T12:06:12.176Z,509.00
2023-04-01T12:07:12.191Z,516.00
2023-04-01T12:08:12.166Z,514.00
2023-04-01T12:09:12.155Z,521.00
2023-04-01T12:10:12.207Z,521.00
2023-04-01T12:11:12.165Z,521.00
2023-04-01T12:12:12.173Z,517.00
2023-04-01T12:13:12.190Z,523.00
2023-04-01T12:14:12.194Z,517.00
2023-04-01T12:15:12.140Z,517.00
2023-04-01T12:16:12.189Z,523.00
2023-04-01T12:17:12.128Z,515.00
2023-04-01T12:18:12.218Z,514.00
2023-04-01T12:19:12.118Z,519.00
2023-04-01T12:20:12.100Z,517.00
2023-04-01T12:21:12.105Z,519.00
2023-04-01T12:22:12.098Z,518.00
2023-04-01T12:23:12.099Z,518.00
2023-04-01T12:24:12.078Z,519.00
2023-04-01T12:25:12.078Z,524.00
2023-04-01T12:26:12.083Z,523.00
2023-04-01T12:27:12.089Z,527.00
2023-04-01T12:28:12.068Z,526.00
2023-04-01T12:29:12.086Z,530.00